Positano Jet — IFTU — position and weather

sailwx.info

Track history (hours):
 
Tides and Currents Weather Stations Pressure Air Temp Water Temp Dewpoint Dewpoint Depression Visibility Wind Speed Wind Dir Waves Ship Positions

Positano Jet

Last reported at 2016-Oct-31 09:32 UTC. Time now 2016-Dec-05 10:35 UTC.
Position N 40°43' E 014°28'.
Warning: this ship's position is 35 days out of date.

Length 23 m; draft 2 m.

Type: Ship. MMSI: 247160800.

Date/timePositionNaut miles runAvg speedWind from/ knotsBaromVisibWave heightAir tempDewpointWater temp
2016-Oct-31 09:32N 40°43' E 014°28'14 0.7
2016-Oct-30 13:31N 40°33' E 014°14'0 0.0
2016-Oct-30 12:31N 40°33' E 014°14'0 0.0
2016-Oct-30 11:30N 40°33' E 014°14'0 0.0
2016-Oct-29 11:24N 40°33' E 014°14'  
2016-Oct-26 16:33N 40°37' E 014°29'9 9.4
2016-Oct-26 15:33N 40°34' E 014°17'10 9.7
2016-Oct-26 14:33N 40°37' E 014°29'12 6.0
2016-Oct-26 12:33N 40°33' E 014°14'0 0.0
2016-Oct-26 11:33N 40°33' E 014°14'0 0.0
2016-Oct-26 10:33N 40°33' E 014°14'0 0.0
2016-Oct-26 09:33N 40°33' E 014°14'1210.9
2016-Oct-26 08:27N 40°38' E 014°29'1 0.1
2016-Oct-25 16:33N 40°37' E 014°28'8 7.8
2016-Oct-25 15:33N 40°34' E 014°19'2 1.2
2016-Oct-25 13:32N 40°34' E 014°22'5 5.4
2016-Oct-25 12:33N 40°34' E 014°15'8 4.1
2016-Oct-25 10:33N 40°39' E 014°24'5 1.5
2016-Oct-25 07:32N 40°37' E 014°29'0 0.0
2016-Oct-25 04:32N 40°37' E 014°29'0 0.0
2016-Oct-25 03:26N 40°37' E 014°29'0 0.0
2016-Oct-25 02:33N 40°37' E 014°29'0 0.0
2016-Oct-24 21:33N 40°37' E 014°29'0 0.0
2016-Oct-24 20:32N 40°37' E 014°29'0 0.0
2016-Oct-24 18:33N 40°37' E 014°29'6 1.1
2016-Oct-24 13:32N 40°34' E 014°23'6 1.0
2016-Oct-24 07:34N 40°37' E 014°29'  
2016-Oct-21 13:31N 40°35' E 014°22'  
Track history (hours):
 
Tides and Currents Weather Stations Pressure Air Temp Water Temp Dewpoint Dewpoint Depression Visibility Wind Speed Wind Dir Waves Ship Positions

Positano Jet

Last reported at 2016-Oct-31 09:32 UTC. Time now 2016-Dec-05 10:35 UTC.
Position N 40°43' E 014°28'.
Warning: this ship's position is 35 days out of date.

Length 23 m; draft 2 m.

Type: Ship. MMSI: 247160800.

Date/timePositionNaut miles runAvg speedWind from/ knotsBaromVisibWave heightAir tempDewpointWater temp
2016-Oct-31 09:32N 40°43' E 014°28'14 0.7
2016-Oct-30 13:31N 40°33' E 014°14'0 0.0
2016-Oct-30 12:31N 40°33' E 014°14'0 0.0
2016-Oct-30 11:30N 40°33' E 014°14'0 0.0
2016-Oct-29 11:24N 40°33' E 014°14'  
2016-Oct-26 16:33N 40°37' E 014°29'9 9.4
2016-Oct-26 15:33N 40°34' E 014°17'10 9.7
2016-Oct-26 14:33N 40°37' E 014°29'12 6.0
2016-Oct-26 12:33N 40°33' E 014°14'0 0.0
2016-Oct-26 11:33N 40°33' E 014°14'0 0.0
2016-Oct-26 10:33N 40°33' E 014°14'0 0.0
2016-Oct-26 09:33N 40°33' E 014°14'1210.9
2016-Oct-26 08:27N 40°38' E 014°29'1 0.1
2016-Oct-25 16:33N 40°37' E 014°28'8 7.8
2016-Oct-25 15:33N 40°34' E 014°19'2 1.2
2016-Oct-25 13:32N 40°34' E 014°22'5 5.4
2016-Oct-25 12:33N 40°34' E 014°15'8 4.1
2016-Oct-25 10:33N 40°39' E 014°24'5 1.5
2016-Oct-25 07:32N 40°37' E 014°29'0 0.0
2016-Oct-25 04:32N 40°37' E 014°29'0 0.0
2016-Oct-25 03:26N 40°37' E 014°29'0 0.0
2016-Oct-25 02:33N 40°37' E 014°29'0 0.0
2016-Oct-24 21:33N 40°37' E 014°29'0 0.0
2016-Oct-24 20:32N 40°37' E 014°29'0 0.0
2016-Oct-24 18:33N 40°37' E 014°29'6 1.1
2016-Oct-24 13:32N 40°34' E 014°23'6 1.0
2016-Oct-24 07:34N 40°37' E 014°29'  
2016-Oct-21 13:31N 40°35' E 014°22'  

Dump ship's entire track history